Time;durP1;ratioP1;P1;durP2;ratioP2;P2;SDS_P1;SDS_P2;PMS_P1;PMS_P2;Temp;Humidity;BMP_temperature;BMP_pressure;BME280_temperature;BME280_humidity;BME280_pressure;Samples;Min_cycle;Max_cycle;Signal;HPM_P1;HPM_P2
2022/04/21 00:01:02;;;;;;;12.63;5.32;;;;;;;9.72;100.00;101263.78;5202997;28;20024;-70
2022/04/21 00:03:33;;;;;;;9.80;5.35;;;;;;;9.71;100.00;101260.28;5203565;28;20033;-70
2022/04/21 00:06:03;;;;;;;11.68;5.88;;;;;;;9.72;100.00;101258.44;5202698;28;20017;-70
2022/04/21 00:08:34;;;;;;;9.32;5.20;;;;;;;9.72;100.00;101263.78;5201834;28;20049;-70
2022/04/21 00:11:05;;;;;;;9.98;5.22;;;;;;;9.70;100.00;101263.94;5201801;28;20585;-70
2022/04/21 00:13:36;;;;;;;10.65;5.20;;;;;;;9.69;100.00;101256.91;5194473;28;20021;-70
2022/04/21 00:16:07;;;;;;;9.30;4.88;;;;;;;9.68;100.00;101249.84;5203465;28;20036;-70
2022/04/21 00:18:37;;;;;;;11.85;5.53;;;;;;;9.64;100.00;101250.28;5202732;28;20383;-70
2022/04/21 00:21:08;;;;;;;9.70;5.38;;;;;;;9.58;100.00;101247.22;5203306;28;20025;-70
2022/04/21 00:23:38;;;;;;;14.35;6.45;;;;;;;9.54;100.00;101248.53;5203323;28;20022;-71
2022/04/21 00:26:09;;;;;;;14.18;6.10;;;;;;;9.47;100.00;101244.75;5202820;28;20026;-70
2022/04/21 00:28:39;;;;;;;14.20;6.13;;;;;;;9.44;100.00;101247.75;5203153;28;20064;-71
2022/04/21 00:31:10;;;;;;;14.15;5.82;;;;;;;9.43;100.00;101245.19;5202692;28;20122;-70
2022/04/21 00:33:40;;;;;;;10.25;5.78;;;;;;;9.40;100.00;101256.22;5205154;28;20025;-70
2022/04/21 00:36:10;;;;;;;10.70;5.38;;;;;;;9.38;100.00;101250.16;5206605;28;20482;-70
2022/04/21 00:38:41;;;;;;;18.08;5.45;;;;;;;9.34;100.00;101250.47;5200634;28;20049;-70
2022/04/21 00:41:11;;;;;;;10.05;5.63;;;;;;;9.28;100.00;101248.38;5206717;28;20029;-70
2022/04/21 00:43:42;;;;;;;16.00;5.70;;;;;;;9.24;100.00;101247.00;5206913;28;20064;-70
2022/04/21 00:46:18;;;;;;;12.50;5.75;;;;;;;9.23;100.00;101253.31;5206185;28;20109;-70
2022/04/21 00:48:49;;;;;;;9.63;5.68;;;;;;;9.25;100.00;101246.00;5206580;28;20509;-70
2022/04/21 00:51:22;;;;;;;18.38;5.93;;;;;;;9.26;100.00;101250.38;5206463;28;20048;-70
2022/04/21 00:53:52;;;;;;;9.52;5.45;;;;;;;9.21;100.00;101246.44;5206627;28;20035;-71
2022/04/21 00:56:24;;;;;;;12.70;5.88;;;;;;;9.14;100.00;101248.03;5205902;28;20025;-70
2022/04/21 00:58:55;;;;;;;11.73;6.35;;;;;;;9.07;100.00;101256.63;5205171;28;20589;-70
2022/04/21 01:04:16;;;;;;;13.23;6.30;;;;;;;8.95;100.00;101256.97;5207132;28;20025;-71
2022/04/21 01:06:46;;;;;;;9.90;5.03;;;;;;;8.92;100.00;101254.56;5206286;28;20048;-71
2022/04/21 01:09:16;;;;;;;9.90;5.85;;;;;;;8.88;100.00;101256.69;5203635;28;20025;-70
2022/04/21 01:11:49;;;;;;;14.55;6.05;;;;;;;8.87;100.00;101251.50;5206324;28;20025;-70
2022/04/21 01:14:20;;;;;;;10.93;5.57;;;;;;;8.85;100.00;101251.66;5197271;28;20048;-70
2022/04/21 01:16:51;;;;;;;11.00;5.25;;;;;;;8.81;100.00;101250.25;5205929;28;20021;-70
2022/04/21 01:19:22;;;;;;;11.02;6.18;;;;;;;8.78;100.00;101248.69;5206209;28;20033;-70
2022/04/21 01:21:52;;;;;;;13.93;6.07;;;;;;;8.75;100.00;101257.03;5206047;28;20526;-70
2022/04/21 01:24:23;;;;;;;13.30;6.18;;;;;;;8.72;100.00;101243.91;5206068;28;20382;-70
2022/04/21 01:26:55;;;;;;;12.68;6.22;;;;;;;8.71;100.00;101249.44;5205969;28;20040;-69
2022/04/21 01:29:27;;;;;;;10.05;5.85;;;;;;;8.69;100.00;101238.88;5205641;28;20026;-70
2022/04/21 01:31:58;;;;;;;13.30;6.50;;;;;;;8.69;100.00;101243.38;5205747;28;20025;-70
2022/04/21 01:34:28;;;;;;;11.68;6.32;;;;;;;8.68;100.00;101234.50;5206015;28;20497;-70
2022/04/21 01:42:37;;;;;;;12.98;6.93;;;;;;;8.50;100.00;101239.75;5206467;28;20486;-70
2022/04/21 01:45:19;;;;;;;11.35;6.15;;;;;;;8.48;100.00;101235.53;5205536;28;20032;-70
2022/04/21 01:47:50;;;;;;;9.95;5.95;;;;;;;8.46;100.00;101243.69;5205632;28;20026;-70
2022/04/21 01:50:21;;;;;;;14.60;6.65;;;;;;;8.42;100.00;101242.28;5205314;28;20115;-71
2022/04/21 01:52:52;;;;;;;12.43;6.13;;;;;;;8.38;100.00;101238.19;5205573;28;20029;-70
2022/04/21 01:55:24;;;;;;;11.40;6.32;;;;;;;8.35;100.00;101240.31;5205428;28;20021;-70
2022/04/21 01:57:55;;;;;;;16.17;6.80;;;;;;;8.32;100.00;101230.72;5205109;28;20041;-70
2022/04/21 02:00:25;;;;;;;12.13;5.63;;;;;;;8.27;100.00;101225.81;5205372;28;20494;-70
2022/04/21 02:02:56;;;;;;;11.95;6.03;;;;;;;8.22;100.00;101232.56;5205012;28;20380;-70
2022/04/21 02:05:28;;;;;;;12.48;6.57;;;;;;;8.20;100.00;101232.72;5204995;28;20100;-70
2022/04/21 02:08:00;;;;;;;13.57;6.13;;;;;;;8.18;100.00;101225.81;5205237;28;20171;-70
2022/04/21 02:10:30;;;;;;;14.30;8.38;;;;;;;8.16;100.00;101230.47;5204311;28;20029;-70
2022/04/21 02:13:02;;;;;;;12.48;6.80;;;;;;;8.13;100.00;101226.22;5196339;28;20041;-70
2022/04/21 02:15:32;;;;;;;17.15;6.53;;;;;;;8.10;100.00;101231.88;5204644;28;20033;-69
2022/04/21 02:18:03;;;;;;;13.50;6.47;;;;;;;8.07;100.00;101233.97;5205112;28;20408;-71
2022/04/21 02:20:33;;;;;;;11.45;6.97;;;;;;;8.03;100.00;101233.41;5204867;28;20434;-70
2022/04/21 02:23:04;;;;;;;14.40;5.82;;;;;;;7.98;100.00;101231.19;5205158;28;20036;-70
2022/04/21 02:25:34;;;;;;;12.80;6.47;;;;;;;7.93;100.00;101228.09;5204557;28;20498;-70
2022/04/21 02:28:07;;;;;;;15.75;7.20;;;;;;;7.89;100.00;101226.69;5203614;28;20424;-70
2022/04/21 02:30:38;;;;;;;9.77;6.03;;;;;;;7.88;100.00;101226.78;5204929;28;20108;-70
2022/04/21 02:33:08;;;;;;;12.77;6.80;;;;;;;7.87;100.00;101222.44;5204759;28;20163;-70
2022/04/21 02:35:39;;;;;;;13.20;7.15;;;;;;;7.88;100.00;101225.00;5204784;28;20075;-71
2022/04/21 02:38:09;;;;;;;13.88;6.85;;;;;;;7.86;100.00;101221.59;5198612;28;20051;-70
2022/04/21 02:40:39;;;;;;;16.05;6.53;;;;;;;7.82;100.00;101227.34;5204566;28;20053;-70
2022/04/21 02:43:10;;;;;;;11.02;6.43;;;;;;;7.78;100.00;101221.44;5204503;28;20518;-69
2022/04/21 02:45:41;;;;;;;11.02;6.53;;;;;;;7.76;100.00;101220.75;5204392;28;20445;-70
2022/04/21 02:48:14;;;;;;;13.70;7.25;;;;;;;7.74;100.00;101226.22;5204601;28;20440;-70
2022/04/21 02:50:47;;;;;;;13.07;7.18;;;;;;;7.75;100.00;101221.72;5203990;28;20092;-70
2022/04/21 02:57:19;;;;;;;13.25;7.00;;;;;;;7.72;100.00;101222.84;5204513;28;20474;-70
2022/04/21 02:59:00;;;;;;;13.80;7.18;;;;;;;7.62;100.00;101229.16;5203994;28;20022;-70
2022/04/21 03:01:31;;;;;;;11.05;7.15;;;;;;;7.56;100.00;101233.22;5204562;28;20029;-70
2022/04/21 03:04:01;;;;;;;15.30;6.97;;;;;;;7.52;100.00;101237.97;5204235;28;20032;-70
2022/04/21 03:06:31;;;;;;;16.80;7.30;;;;;;;7.48;100.00;101236.59;5204130;28;20108;-70
2022/04/21 03:09:02;;;;;;;18.63;7.85;;;;;;;7.47;100.00;101237.53;5202065;28;20048;-70
2022/04/21 03:11:32;;;;;;;14.43;7.60;;;;;;;7.43;100.00;101229.94;5203954;28;20471;-70
2022/04/21 03:14:03;;;;;;;13.80;8.02;;;;;;;7.42;100.00;101233.59;5195398;28;20079;-69
2022/04/21 03:16:33;;;;;;;15.45;7.60;;;;;;;7.38;100.00;101235.72;5204097;28;20105;-69
2022/04/21 03:19:04;;;;;;;15.27;7.20;;;;;;;7.35;100.00;101237.81;5203889;28;20104;-69
2022/04/21 03:24:23;;;;;;;13.75;7.82;;;;;;;7.34;100.00;101244.13;5192465;28;20040;-69
2022/04/21 03:26:53;;;;;;;13.57;7.65;;;;;;;7.35;100.00;101238.66;5203766;28;20033;-70
2022/04/21 03:29:24;;;;;;;17.90;7.70;;;;;;;7.36;100.00;101239.50;5204185;28;20124;-69
2022/04/21 03:31:55;;;;;;;15.75;7.70;;;;;;;7.36;100.00;101247.50;5203813;28;20037;-70
2022/04/21 03:34:25;;;;;;;15.38;8.57;;;;;;;7.32;100.00;101244.25;5203764;28;20029;-69
2022/04/21 03:36:56;;;;;;;17.90;7.95;;;;;;;7.28;100.00;101242.84;5203854;28;20104;-69
2022/04/21 03:39:27;;;;;;;16.67;7.93;;;;;;;7.29;100.00;101243.69;5197714;28;20021;-69
2022/04/21 03:41:57;;;;;;;13.60;7.75;;;;;;;7.26;100.00;101239.44;5203767;28;20053;-70
2022/04/21 03:44:28;;;;;;;12.65;7.97;;;;;;;7.26;100.00;101242.13;5203550;28;20053;-70
2022/04/21 03:46:58;;;;;;;14.45;7.65;;;;;;;7.26;100.00;101234.97;5203504;28;20086;-71
2022/04/21 03:49:30;;;;;;;13.82;7.55;;;;;;;7.25;100.00;101229.75;5203630;28;20030;-69
2022/04/21 03:52:00;;;;;;;13.60;8.02;;;;;;;7.23;100.00;101235.25;5204259;28;20033;-69
2022/04/21 03:54:31;;;;;;;15.18;8.10;;;;;;;7.21;100.00;101233.69;5203541;28;20017;-70
2022/04/21 03:57:01;;;;;;;14.50;7.70;;;;;;;7.18;100.00;101239.31;5203840;28;20032;-70
2022/04/21 03:59:33;;;;;;;21.08;7.65;;;;;;;7.20;100.00;101224.84;5203194;28;20464;-69
2022/04/21 04:02:04;;;;;;;16.08;7.75;;;;;;;7.20;100.00;101232.00;5203686;28;20097;-69
2022/04/21 04:04:37;;;;;;;11.77;7.28;;;;;;;7.21;100.00;101233.69;5203416;28;20032;-69
2022/04/21 04:12:45;;;;;;;16.83;8.02;;;;;;;7.12;100.00;101234.47;5200534;28;20026;-70
2022/04/21 04:15:15;;;;;;;18.55;9.02;;;;;;;7.06;100.00;101230.53;5205447;28;20027;-70
2022/04/21 04:17:46;;;;;;;18.20;7.85;;;;;;;7.04;100.00;101229.00;5207469;28;20075;-68
2022/04/21 04:20:16;;;;;;;14.18;7.43;;;;;;;7.03;100.00;101229.94;5206846;28;20475;-70
2022/04/21 04:22:47;;;;;;;14.60;7.85;;;;;;;7.03;100.00;101236.16;5207653;28;20025;-70
2022/04/21 04:25:17;;;;;;;14.75;8.38;;;;;;;7.03;100.00;101230.81;5207034;28;20021;-70
2022/04/21 04:27:48;;;;;;;11.75;7.68;;;;;;;7.07;100.00;101232.22;5207453;28;20037;-70
2022/04/21 04:30:18;;;;;;;13.52;8.05;;;;;;;7.07;100.00;101236.72;5207384;28;20441;-70
2022/04/21 04:32:48;;;;;;;15.45;8.35;;;;;;;7.05;100.00;101226.19;5206588;28;20102;-71
2022/04/21 04:35:19;;;;;;;21.25;8.73;;;;;;;7.04;100.00;101229.00;5206889;28;20025;-71
2022/04/21 04:37:49;;;;;;;13.57;8.23;;;;;;;7.05;100.00;101233.34;5201690;28;20437;-69
2022/04/21 04:40:20;;;;;;;15.82;8.90;;;;;;;6.98;100.00;101227.72;5206573;28;20028;-70
2022/04/21 04:43:06;;;;;;;16.15;8.25;;;;;;;6.96;100.00;101235.81;5207100;28;20071;-70
2022/04/21 04:48:26;;;;;;;20.35;8.73;;;;;;;6.95;100.00;101242.13;5207007;28;20029;-70
2022/04/21 04:50:56;;;;;;;26.95;9.50;;;;;;;6.98;100.00;101236.56;5206825;28;20022;-69
2022/04/21 04:53:27;;;;;;;14.98;8.85;;;;;;;6.97;100.00;101240.16;5206848;28;20474;-70
2022/04/21 04:55:57;;;;;;;17.80;9.05;;;;;;;6.97;100.00;101240.16;5206199;28;20025;-71
2022/04/21 04:58:27;;;;;;;17.45;8.90;;;;;;;6.97;100.00;101242.84;5206747;28;20049;-70
2022/04/21 05:00:58;;;;;;;17.17;8.45;;;;;;;6.98;100.00;101241.88;5206569;28;20053;-70
2022/04/21 05:03:29;;;;;;;15.20;8.35;;;;;;;7.04;100.00;101231.66;5206732;28;20025;-70
2022/04/21 05:05:59;;;;;;;16.75;8.25;;;;;;;7.10;100.00;101234.63;5206619;28;20463;-72
2022/04/21 05:08:30;;;;;;;16.80;8.13;;;;;;;7.13;100.00;101237.03;5206028;28;20492;-70
2022/04/21 05:11:01;;;;;;;18.30;8.60;;;;;;;7.15;100.00;101237.72;5204503;28;20151;-70
2022/04/21 05:13:31;;;;;;;14.18;8.85;;;;;;;7.17;100.00;101240.25;5206236;28;20021;-70
2022/04/21 05:16:02;;;;;;;17.52;9.25;;;;;;;7.20;100.00;101240.84;5206390;28;20336;-70
2022/04/21 05:18:33;;;;;;;15.07;9.23;;;;;;;7.27;100.00;101246.47;5205330;28;20033;-70
2022/04/21 05:21:03;;;;;;;15.48;8.57;;;;;;;7.33;100.00;101243.28;5206054;28;20025;-70
2022/04/21 05:23:36;;;;;;;23.55;8.68;;;;;;;7.37;100.00;101242.00;5206124;28;20383;-70
2022/04/21 05:26:06;;;;;;;19.30;8.77;;;;;;;7.44;100.00;101250.34;5206033;28;20037;-71
2022/04/21 05:28:37;;;;;;;15.75;8.50;;;;;;;7.51;100.00;101248.81;5206279;28;20360;-70
2022/04/21 05:31:08;;;;;;;17.40;8.65;;;;;;;7.59;100.00;101245.47;5205663;28;20028;-71
2022/04/21 05:33:39;;;;;;;15.30;8.65;;;;;;;7.66;100.00;101252.78;5205961;28;20450;-71
2022/04/21 05:36:10;;;;;;;21.17;8.85;;;;;;;7.72;100.00;101248.72;5205960;28;20025;-70
2022/04/21 05:38:42;;;;;;;17.02;8.90;;;;;;;7.79;100.00;101258.72;5198342;28;20021;-69
2022/04/21 05:41:14;;;;;;;20.73;9.02;;;;;;;7.88;100.00;101259.72;5205721;28;20399;-71
2022/04/21 05:43:46;;;;;;;15.52;8.73;;;;;;;7.97;100.00;101253.50;5205708;28;20364;-70
2022/04/21 05:46:17;;;;;;;19.65;9.00;;;;;;;8.11;100.00;101251.41;5205643;28;20438;-71
2022/04/21 05:48:48;;;;;;;23.17;9.05;;;;;;;8.24;100.00;101254.66;5206274;28;20104;-71
2022/04/21 05:51:18;;;;;;;13.55;8.55;;;;;;;8.60;100.00;101249.59;5205635;28;20025;-71
2022/04/21 05:53:50;;;;;;;17.73;8.38;;;;;;;9.22;100.00;101257.00;5205851;28;20058;-71
2022/04/21 05:56:21;;;;;;;16.30;8.02;;;;;;;9.89;100.00;101251.41;5204901;28;20112;-72
2022/04/21 05:58:51;;;;;;;12.30;7.20;;;;;;;10.56;100.00;101248.19;5205559;28;20153;-73
2022/04/21 06:01:23;;;;;;;14.52;7.82;;;;;;;11.00;100.00;101241.94;5205548;28;20036;-72
2022/04/21 06:03:54;;;;;;;11.35;7.63;;;;;;;11.39;100.00;101239.59;5205426;28;20399;-71
2022/04/21 06:06:24;;;;;;;17.33;7.50;;;;;;;11.83;100.00;101237.56;5205013;28;20025;-72
2022/04/21 06:08:55;;;;;;;14.95;7.07;;;;;;;12.25;100.00;101249.22;5203096;28;20033;-71
2022/04/21 06:11:25;;;;;;;16.23;8.02;;;;;;;12.50;100.00;101244.69;5205576;28;20017;-71
2022/04/21 06:13:56;;;;;;;12.88;7.05;;;;;;;12.55;100.00;101245.88;5196395;28;20032;-72
2022/04/21 06:16:26;;;;;;;10.57;6.60;;;;;;;12.78;100.00;101248.69;5205238;28;20096;-72
2022/04/21 06:18:57;;;;;;;13.18;7.20;;;;;;;12.96;100.00;101252.03;5204816;28;20029;-72
2022/04/21 06:21:27;;;;;;;16.70;7.53;;;;;;;13.01;100.00;101253.38;5204913;28;20029;-74
2022/04/21 06:23:58;;;;;;;10.77;6.97;;;;;;;12.94;100.00;101254.03;5205140;28;20108;-73
2022/04/21 06:26:28;;;;;;;13.88;7.15;;;;;;;13.10;100.00;101255.88;5193406;28;20064;-72
2022/04/21 06:29:02;;;;;;;13.88;7.15;;;;;;;13.39;100.00;101254.44;5201738;28;20018;-72
2022/04/21 06:31:36;;;;;;;13.27;7.05;;;;;;;13.55;100.00;101248.13;5201118;28;20033;-72
2022/04/21 06:34:07;;;;;;;13.07;7.20;;;;;;;13.76;100.00;101250.25;5202326;28;20014;-73
2022/04/21 06:36:38;;;;;;;18.75;6.85;;;;;;;13.87;100.00;101250.66;5202041;28;20056;-72
2022/04/21 06:39:09;;;;;;;14.25;6.60;;;;;;;14.14;100.00;101243.06;5197092;28;20509;-73
2022/04/21 06:41:40;;;;;;;13.35;6.70;;;;;;;14.29;100.00;101246.66;5202268;28;20055;-72
2022/04/21 06:49:48;;;;;;;13.07;6.45;;;;;;;14.86;100.00;101251.59;5202092;28;20027;-74
2022/04/21 06:52:18;;;;;;;15.80;7.40;;;;;;;14.98;100.00;101247.41;5201527;28;20033;-72
2022/04/21 06:54:49;;;;;;;11.75;5.85;;;;;;;15.10;100.00;101247.75;5201953;28;20053;-72
2022/04/21 06:57:21;;;;;;;9.70;5.65;;;;;;;15.35;100.00;101256.44;5201509;28;20017;-73
2022/04/21 06:59:52;;;;;;;14.70;6.32;;;;;;;15.74;100.00;101248.00;5202148;28;20544;-72
2022/04/21 07:02:41;;;;;;;13.20;5.60;;;;;;;15.85;100.00;101256.66;5201842;28;20029;-72
2022/04/21 07:05:13;;;;;;;10.43;6.53;;;;;;;15.69;100.00;101266.69;5201373;28;20033;-72
2022/04/21 07:07:44;;;;;;;11.85;5.97;;;;;;;15.83;99.60;101250.63;5201544;28;20025;-72
2022/04/21 07:10:16;;;;;;;11.77;5.57;;;;;;;15.96;97.43;101266.97;5201539;28;20026;-72
2022/04/21 07:12:47;;;;;;;11.25;5.28;;;;;;;16.09;95.43;101256.31;5201591;28;20048;-73
2022/04/21 07:15:18;;;;;;;10.52;5.10;;;;;;;16.19;97.71;101254.13;5200517;28;20021;-72
2022/04/21 07:17:48;;;;;;;15.43;5.53;;;;;;;16.38;97.85;101259.91;5201649;28;20087;-72
2022/04/21 07:20:18;;;;;;;14.70;5.28;;;;;;;16.29;94.17;101260.03;5201347;28;20442;-72
2022/04/21 07:22:49;;;;;;;10.95;5.60;;;;;;;16.52;94.33;101251.72;5201614;28;20477;-72
2022/04/21 07:25:19;;;;;;;10.00;5.20;;;;;;;16.54;94.93;101260.47;5200782;28;20053;-74
2022/04/21 07:27:51;;;;;;;7.35;4.80;;;;;;;16.82;89.33;101257.00;5201153;28;20032;-72
2022/04/21 07:30:21;;;;;;;9.52;5.38;;;;;;;16.84;87.83;101260.31;5201305;28;20511;-72
2022/04/21 07:32:52;;;;;;;10.63;5.07;;;;;;;16.94;90.15;101257.28;5201344;28;20040;-72
2022/04/21 07:35:24;;;;;;;9.15;5.57;;;;;;;17.07;87.30;101251.94;5200560;28;20052;-72
2022/04/21 07:37:55;;;;;;;8.55;5.43;;;;;;;17.25;84.51;101251.41;5195754;28;20023;-72
2022/04/21 07:40:25;;;;;;;10.60;5.88;;;;;;;17.28;83.99;101248.31;5200322;28;20219;-72
2022/04/21 07:42:56;;;;;;;8.80;5.30;;;;;;;17.53;81.68;101243.22;5206414;28;20025;-73
2022/04/21 07:45:27;;;;;;;8.38;5.38;;;;;;;17.83;79.92;101247.31;5207618;28;20029;-73
2022/04/21 07:47:58;;;;;;;7.65;4.82;;;;;;;17.70;80.50;101243.69;5207778;28;20031;-74
2022/04/21 07:50:29;;;;;;;6.93;4.60;;;;;;;18.21;80.66;101244.03;5207958;28;20022;-73
2022/04/21 07:55:51;;;;;;;8.90;4.70;;;;;;;18.14;76.49;101237.78;5207547;28;20483;-74
2022/04/21 07:58:27;;;;;;;5.63;3.70;;;;;;;18.18;74.49;101236.31;5207725;28;20034;-73
2022/04/21 08:00:57;;;;;;;8.32;4.57;;;;;;;18.31;74.53;101241.75;5207821;28;20021;-73
2022/04/21 08:03:29;;;;;;;10.52;4.40;;;;;;;18.19;73.41;101243.41;5207621;28;20029;-73
2022/04/21 08:06:00;;;;;;;8.70;4.63;;;;;;;18.32;77.25;101239.88;5207151;28;20092;-73
2022/04/21 08:08:30;;;;;;;11.55;5.25;;;;;;;18.79;74.19;101235.31;5207801;28;20148;-73
2022/04/21 08:11:01;;;;;;;12.35;5.50;;;;;;;18.79;73.22;101236.16;5207877;28;20095;-74
2022/04/21 08:13:31;;;;;;;7.32;4.72;;;;;;;19.07;69.02;101232.31;5199165;28;20100;-74
2022/04/21 08:16:02;;;;;;;6.70;4.72;;;;;;;18.97;70.85;101240.06;5207248;28;20029;-74
2022/04/21 08:18:33;;;;;;;6.85;4.95;;;;;;;19.12;69.00;101229.78;5207860;28;20036;-74
2022/04/21 08:21:03;;;;;;;10.25;5.10;;;;;;;19.03;69.81;101229.22;5207855;28;20049;-73
2022/04/21 08:23:36;;;;;;;10.80;5.03;;;;;;;19.37;68.71;101235.38;5207911;28;20029;-73
2022/04/21 08:34:34;;;;;;;10.98;5.78;;;;;;;19.90;65.06;101227.00;5206815;28;20044;-73
2022/04/21 08:37:05;;;;;;;8.98;5.03;;;;;;;19.55;63.53;101219.19;5207854;28;20061;-74
2022/04/21 08:39:35;;;;;;;9.13;5.15;;;;;;;19.64;67.97;101223.38;5201176;28;20022;-74
2022/04/21 08:44:54;;;;;;;7.05;4.57;;;;;;;19.82;63.70;101217.19;5206498;28;20262;-73
2022/04/21 08:47:28;;;;;;;10.70;5.60;;;;;;;19.38;63.59;101224.28;5207533;28;20021;-73
2022/04/21 08:50:04;;;;;;;8.23;4.50;;;;;;;19.74;66.73;101216.63;5207509;28;20021;-73
2022/04/21 08:52:35;;;;;;;9.18;5.00;;;;;;;19.71;61.79;101223.31;5207585;28;20520;-74
2022/04/21 08:55:06;;;;;;;11.07;4.60;;;;;;;19.53;63.40;101217.72;5202915;28;20037;-75
2022/04/21 08:57:37;;;;;;;11.90;5.20;;;;;;;19.31;63.71;101219.91;5203645;28;20030;-73
2022/04/21 09:00:08;;;;;;;7.22;4.50;;;;;;;19.65;62.93;101205.16;5204364;28;20017;-74
2022/04/21 09:02:44;;;;;;;6.68;4.68;;;;;;;19.56;63.29;101209.97;5204431;28;20029;-73
2022/04/21 09:05:15;;;;;;;10.20;4.63;;;;;;;19.88;64.61;101200.00;5203828;28;20044;-73
2022/04/21 09:07:47;;;;;;;6.30;3.80;;;;;;;19.82;61.28;101202.75;5203520;28;20064;-74
2022/04/21 09:10:19;;;;;;;7.07;4.03;;;;;;;19.63;60.89;101201.81;5203614;28;20064;-73
2022/04/21 09:12:55;;;;;;;8.05;4.05;;;;;;;19.60;60.83;101196.81;5196553;28;20026;-73
2022/04/21 09:15:28;;;;;;;8.50;4.15;;;;;;;20.06;66.00;101191.06;5203085;28;20104;-73
2022/04/21 09:18:01;;;;;;;7.80;3.42;;;;;;;20.05;61.14;101200.28;5204094;28;20029;-74
2022/04/21 09:20:34;;;;;;;7.50;3.35;;;;;;;20.34;59.00;101187.09;5202846;28;20076;-73
2022/04/21 09:23:07;;;;;;;6.57;3.63;;;;;;;19.51;60.15;101200.78;5204279;28;20049;-73
2022/04/21 09:25:54;;;;;;;10.70;3.75;;;;;;;19.32;60.17;101197.94;5203481;28;20033;-72
2022/04/21 09:28:26;;;;;;;6.53;3.30;;;;;;;19.52;59.13;101194.28;5203534;28;20242;-75
2022/04/21 09:30:59;;;;;;;9.95;4.13;;;;;;;19.73;59.72;101193.16;5203414;28;20056;-73
2022/04/21 09:33:32;;;;;;;8.25;3.70;;;;;;;19.44;60.07;101191.84;5203453;28;20053;-72
2022/04/21 09:36:06;;;;;;;4.00;3.10;;;;;;;19.31;59.50;101198.97;5202330;28;20033;-74
2022/04/21 09:38:37;;;;;;;9.00;3.85;;;;;;;19.27;58.85;101196.91;5190202;28;20025;-73
2022/04/21 09:41:10;;;;;;;7.35;3.95;;;;;;;19.08;60.00;101194.06;5199194;28;20422;-73
2022/04/21 09:43:42;;;;;;;6.15;3.47;;;;;;;19.62;63.86;101189.25;5203657;28;20025;-73
2022/04/21 09:46:17;;;;;;;7.63;3.88;;;;;;;19.86;61.25;101182.19;5202735;28;20099;-73
2022/04/21 09:49:06;;;;;;;13.13;3.78;;;;;;;20.35;58.14;101175.13;5202122;28;20018;-74
2022/04/21 09:51:37;;;;;;;6.53;3.60;;;;;;;20.22;59.21;101173.34;5202436;28;20029;-74
2022/04/21 09:54:10;;;;;;;8.82;3.38;;;;;;;19.65;55.31;101181.47;5203280;28;20022;-73
2022/04/21 09:56:41;;;;;;;8.25;4.05;;;;;;;19.44;57.46;101189.13;5189939;28;20458;-73
2022/04/21 09:59:12;;;;;;;6.57;3.75;;;;;;;19.62;59.89;101167.47;5202577;28;20041;-73
2022/04/21 10:01:44;;;;;;;7.70;3.88;;;;;;;19.44;57.45;101170.91;5203084;28;20065;-72
2022/04/21 10:04:18;;;;;;;10.68;4.18;;;;;;;19.53;59.82;101160.56;5201884;28;20091;-73
2022/04/21 10:06:49;;;;;;;12.30;4.78;;;;;;;19.46;57.38;101162.50;5202651;28;20104;-73
2022/04/21 10:09:21;;;;;;;8.50;4.47;;;;;;;19.88;60.46;101158.28;5202692;28;20100;-73
2022/04/21 10:11:52;;;;;;;11.25;4.63;;;;;;;19.98;60.04;101158.69;5203365;28;20075;-73
2022/04/21 10:14:23;;;;;;;16.60;4.13;;;;;;;19.24;57.01;101159.28;5201679;28;20305;-74
2022/04/21 10:16:54;;;;;;;7.65;4.10;;;;;;;19.20;58.11;101149.88;5202283;28;20087;-73
2022/04/21 10:19:25;;;;;;;14.65;3.97;;;;;;;19.25;58.39;101150.88;5202619;28;20022;-73
2022/04/21 10:22:02;;;;;;;8.98;3.85;;;;;;;19.57;60.49;101151.75;5203047;28;20375;-74
2022/04/21 10:24:37;;;;;;;9.80;4.57;;;;;;;19.06;59.22;101152.63;5202810;28;20017;-73
2022/04/21 10:27:44;;;;;;;9.23;4.05;;;;;;;19.03;61.71;101144.09;5201655;28;20803;-73
2022/04/21 10:30:21;;;;;;;9.52;4.20;;;;;;;19.05;57.72;101140.09;5202167;28;20025;-72
2022/04/21 10:32:53;;;;;;;7.35;4.05;;;;;;;19.22;59.92;101139.59;5202440;28;20272;-73
2022/04/21 10:35:23;;;;;;;11.63;4.07;;;;;;;18.93;58.06;101135.56;5201437;28;20083;-73
2022/04/21 10:38:13;;;;;;;6.80;3.55;;;;;;;19.04;58.41;101126.72;5197242;28;20391;-73
2022/04/21 10:41:03;;;;;;;9.07;3.65;;;;;;;19.21;57.88;101121.63;5202595;28;20112;-73
2022/04/21 10:43:52;;;;;;;9.05;3.55;;;;;;;19.72;60.18;101126.16;5201923;28;20026;-73
2022/04/21 10:46:26;;;;;;;6.53;3.92;;;;;;;19.59;55.10;101122.50;5201327;28;20031;-73
2022/04/21 10:48:58;;;;;;;7.40;3.50;;;;;;;19.41;55.45;101122.34;5202335;28;20032;-74
2022/04/21 10:57:40;;;;;;;5.07;3.45;;;;;;;19.20;56.96;101115.34;5202361;28;20114;-73
2022/04/21 11:00:23;;;;;;;14.07;3.67;;;;;;;19.29;55.47;101105.91;5201746;28;20112;-74
2022/04/21 11:03:12;;;;;;;6.75;3.17;;;;;;;19.69;54.52;101102.97;5200782;28;20501;-73
2022/04/21 11:05:43;;;;;;;8.90;3.30;;;;;;;19.50;52.55;101107.44;5201043;28;20033;-73
2022/04/21 11:08:14;;;;;;;6.88;2.95;;;;;;;19.24;52.13;101105.72;5202102;28;20021;-73
2022/04/21 11:10:45;;;;;;;9.13;2.90;;;;;;;18.82;54.70;101099.81;5201130;28;20053;-73
2022/04/21 11:13:18;;;;;;;6.28;3.30;;;;;;;18.97;52.83;101104.16;5192277;28;20053;-74
2022/04/21 11:15:50;;;;;;;4.65;3.15;;;;;;;18.93;55.57;101097.50;5201467;28;20064;-72
2022/04/21 11:18:22;;;;;;;11.70;3.30;;;;;;;19.25;55.11;101084.78;5201468;28;20142;-74
2022/04/21 11:21:31;;;;;;;8.25;3.10;;;;;;;19.70;55.82;101093.72;5188324;28;20025;-73
2022/04/21 11:24:02;;;;;;;6.68;3.55;;;;;;;19.62;54.74;101091.28;5201664;28;20025;-74
2022/04/21 11:26:33;;;;;;;9.52;4.18;;;;;;;19.72;52.92;101082.63;5200869;28;20424;-73
2022/04/21 11:29:04;;;;;;;4.97;3.28;;;;;;;19.58;51.55;101074.53;5201962;28;20232;-74
2022/04/21 11:31:34;;;;;;;5.70;3.28;;;;;;;19.56;50.81;101089.41;5200323;28;20028;-73
2022/04/21 11:34:05;;;;;;;6.05;3.33;;;;;;;19.23;51.32;101079.56;5201913;28;20017;-73
2022/04/21 11:36:40;;;;;;;6.90;4.00;;;;;;;19.25;54.59;101091.06;5201086;28;20021;-73
2022/04/21 11:39:13;;;;;;;10.00;3.28;;;;;;;19.24;53.28;101073.06;5196138;28;20503;-73
2022/04/21 11:41:44;;;;;;;7.97;3.40;;;;;;;19.48;53.01;101063.31;5201148;28;20108;-73
2022/04/21 11:44:33;;;;;;;9.35;3.10;;;;;;;19.72;55.44;101060.84;5201056;28;20044;-74
2022/04/21 11:47:04;;;;;;;7.70;2.58;;;;;;;19.97;51.31;101050.78;5190340;28;20479;-74
2022/04/21 11:49:34;;;;;;;3.72;2.45;;;;;;;20.35;53.36;101063.44;5201232;28;20020;-74
2022/04/21 11:52:05;;;;;;;9.18;2.40;;;;;;;20.12;47.62;101061.34;5201472;28;20521;-74
2022/04/21 11:54:38;;;;;;;5.05;2.13;;;;;;;20.07;49.51;101047.56;5200753;28;20025;-74
2022/04/21 11:57:09;;;;;;;7.35;2.40;;;;;;;19.90;53.19;101056.28;5201429;28;20100;-74
2022/04/21 11:59:41;;;;;;;5.10;2.17;;;;;;;19.98;49.50;101052.47;5201125;28;20558;-74
2022/04/21 12:07:51;;;;;;;5.82;2.03;;;;;;;20.09;48.28;101045.47;5201477;28;20117;-73
2022/04/21 12:10:22;;;;;;;3.83;2.20;;;;;;;20.18;49.29;101041.38;5200779;28;20029;-74
2022/04/21 12:12:53;;;;;;;4.07;2.20;;;;;;;20.10;47.61;101047.13;5193275;28;20038;-74
2022/04/21 12:15:39;;;;;;;8.65;3.05;;;;;;;19.87;48.59;101034.13;5199054;28;20407;-74
2022/04/21 12:18:10;;;;;;;6.78;2.55;;;;;;;19.87;47.21;101029.50;5201291;28;20037;-73
2022/04/21 12:20:59;;;;;;;5.88;2.92;;;;;;;20.10;50.26;101033.50;5201110;28;20096;-73
2022/04/21 12:23:29;;;;;;;6.53;2.22;;;;;;;20.05;48.49;101020.56;5200744;28;20030;-73
2022/04/21 12:26:00;;;;;;;3.33;2.10;;;;;;;20.04;48.51;101020.78;5200527;28;20331;-73
2022/04/21 12:28:46;;;;;;;6.57;2.53;;;;;;;20.00;46.51;101011.41;5201713;28;20020;-73
2022/04/21 12:31:19;;;;;;;12.65;3.13;;;;;;;20.37;48.26;101021.25;5205066;28;20028;-73
2022/04/21 12:33:50;;;;;;;8.32;3.15;;;;;;;20.44;44.89;101002.13;5204899;28;20025;-73
2022/04/21 12:36:48;;;;;;;4.30;2.60;;;;;;;20.41;49.25;101008.03;5204142;28;20029;-73